Time,TemperatureF,DewpointF,PressureIn,WindDirection,WindDirectionDegrees,WindSpeedMPH,WindSpeedGustMPH,Humidity,HourlyPrecipIn,Conditions,Clouds,dailyrainin,SolarRadiationWatts/m^2,SoftwareType,DateUTC
2013-02-19 00:01:00,36.0,17.0,-100.00,SW,217,4.0,8.0,45,0.00,,,0.00,0.000000,,2013-02-19 05:01:00,
2013-02-19 00:32:00,36.0,17.0,-100.00,SW,217,4.0,8.0,45,0.00,,,0.00,0.000000,,2013-02-19 05:32:00,
2013-02-19 00:43:00,36.0,17.0,-100.00,SW,217,4.0,8.0,45,0.00,,,0.00,0.000000,,2013-02-19 05:43:00,
2013-02-19 00:52:00,36.0,17.0,-100.00,SW,217,4.0,8.0,45,0.00,,,0.00,0.000000,,2013-02-19 05:52:00,
2013-02-19 01:01:00,36.0,18.0,-100.00,SW,216,7.0,14.0,48,0.00,,,-99.99,0.000000,,2013-02-19 06:01:00,
2013-02-19 01:33:00,36.0,18.0,-100.00,SW,216,7.0,14.0,48,0.00,,,-99.99,0.000000,,2013-02-19 06:33:00,
2013-02-19 01:42:00,36.0,18.0,-100.00,SW,216,7.0,14.0,48,0.00,,,-99.99,0.000000,,2013-02-19 06:42:00,
2013-02-19 01:53:00,36.0,18.0,-100.00,SW,216,7.0,14.0,48,0.00,,,-99.99,0.000000,,2013-02-19 06:53:00,
2013-02-19 02:01:00,36.0,19.0,-100.00,SSW,212,6.0,11.0,50,0.00,,,0.00,0.000000,,2013-02-19 07:01:00,
2013-02-19 02:32:00,36.0,19.0,-100.00,SSW,212,6.0,11.0,50,0.00,,,0.00,0.000000,,2013-02-19 07:32:00,
2013-02-19 02:42:00,36.0,19.0,-100.00,SSW,212,6.0,11.0,50,0.00,,,0.00,0.000000,,2013-02-19 07:42:00,
2013-02-19 02:52:00,36.0,19.0,-100.00,SSW,212,6.0,11.0,50,0.00,,,0.00,0.000000,,2013-02-19 07:52:00,
2013-02-19 03:01:00,35.0,19.0,-100.00,SW,221,7.0,16.0,51,0.00,,,0.00,0.000000,,2013-02-19 08:01:00,
2013-02-19 03:32:00,35.0,19.0,-100.00,SW,221,7.0,16.0,51,0.00,,,0.00,0.000000,,2013-02-19 08:32:00,
2013-02-19 03:42:00,35.0,19.0,-100.00,SW,221,7.0,16.0,51,0.00,,,0.00,0.000000,,2013-02-19 08:42:00,
2013-02-19 03:52:00,35.0,19.0,-100.00,SW,221,7.0,16.0,51,0.00,,,0.00,0.000000,,2013-02-19 08:52:00,
2013-02-19 04:01:00,34.0,19.0,-100.00,SW,214,4.0,15.0,53,0.00,,,0.00,0.000000,,2013-02-19 09:01:00,
2013-02-19 04:32:00,34.0,19.0,-100.00,SW,214,4.0,15.0,53,0.00,,,0.00,0.000000,,2013-02-19 09:32:00,
2013-02-19 04:42:00,34.0,19.0,-100.00,SW,214,4.0,15.0,53,0.00,,,0.00,0.000000,,2013-02-19 09:42:00,
2013-02-19 04:53:00,34.0,19.0,-100.00,SW,214,4.0,15.0,53,0.00,,,0.00,0.000000,,2013-02-19 09:53:00,
2013-02-19 05:01:00,35.0,20.0,-100.00,SW,220,7.0,14.0,53,0.00,,,0.00,0.000000,,2013-02-19 10:01:00,
2013-02-19 05:32:00,35.0,20.0,-100.00,SW,220,7.0,14.0,53,0.00,,,0.00,0.000000,,2013-02-19 10:32:00,
2013-02-19 05:42:00,35.0,20.0,-100.00,SW,220,7.0,14.0,53,0.00,,,0.00,0.000000,,2013-02-19 10:42:00,
2013-02-19 05:52:00,35.0,20.0,-100.00,SW,220,7.0,14.0,53,0.00,,,0.00,0.000000,,2013-02-19 10:52:00,
2013-02-19 06:01:00,35.0,20.0,-100.00,SW,228,4.0,14.0,54,0.00,,,0.00,0.000000,,2013-02-19 11:01:00,
2013-02-19 06:22:00,35.0,20.0,-100.00,SW,228,4.0,14.0,54,0.00,,,0.00,0.000000,,2013-02-19 11:22:00,
2013-02-19 06:32:00,35.0,20.0,-100.00,SW,228,4.0,14.0,54,0.00,,,0.00,0.000000,,2013-02-19 11:32:00,
2013-02-19 06:42:00,35.0,20.0,-100.00,SW,228,4.0,14.0,54,0.00,,,0.00,0.000000,,2013-02-19 11:42:00,
2013-02-19 06:52:00,35.0,20.0,-100.00,SW,228,4.0,14.0,54,0.00,,,0.00,0.000000,,2013-02-19 11:52:00,
2013-02-19 07:01:00,31.0,28.0,-100.00,SSW,210,3.0,14.0,88,0.00,,,0.00,0.000000,,2013-02-19 12:01:00,
2013-02-19 07:33:00,31.0,28.0,-100.00,SSW,210,3.0,14.0,88,0.00,,,0.00,0.000000,,2013-02-19 12:33:00,
2013-02-19 07:42:00,31.0,28.0,-100.00,SSW,210,3.0,14.0,88,0.00,,,0.00,0.000000,,2013-02-19 12:42:00,
2013-02-19 07:53:00,31.0,28.0,-100.00,SSW,210,3.0,14.0,88,0.00,,,0.00,0.000000,,2013-02-19 12:53:00,
2013-02-19 08:01:00,31.0,29.0,-100.00,SSW,213,6.0,16.0,92,0.00,,,0.00,0.000000,,2013-02-19 13:01:00,
2013-02-19 08:32:00,31.0,29.0,-100.00,SSW,213,6.0,16.0,92,0.00,,,0.00,0.000000,,2013-02-19 13:32:00,
2013-02-19 08:42:00,31.0,29.0,-100.00,SSW,213,6.0,16.0,92,0.00,,,0.00,0.000000,,2013-02-19 13:42:00,
2013-02-19 08:52:00,31.0,29.0,-100.00,SSW,213,6.0,16.0,92,0.00,,,0.00,0.000000,,2013-02-19 13:52:00,
2013-02-19 09:01:00,32.0,30.0,-100.00,SW,214,6.0,12.0,93,0.00,,,0.00,0.000000,,2013-02-19 14:01:00,
2013-02-19 09:33:00,32.0,30.0,-100.00,SW,214,6.0,12.0,93,0.00,,,0.00,0.000000,,2013-02-19 14:33:00,
2013-02-19 09:42:00,32.0,30.0,-100.00,SW,214,6.0,12.0,93,0.00,,,0.00,0.000000,,2013-02-19 14:42:00,
2013-02-19 09:52:00,32.0,30.0,-100.00,SW,214,6.0,12.0,93,0.00,,,0.00,0.000000,,2013-02-19 14:52:00,
2013-02-19 10:01:00,33.0,31.0,-100.00,SW,215,5.0,12.0,94,0.00,,,0.00,0.000000,,2013-02-19 15:01:00,
2013-02-19 10:22:00,33.0,31.0,-100.00,SW,215,5.0,12.0,94,0.00,,,0.00,0.000000,,2013-02-19 15:22:00,
2013-02-19 10:32:00,33.0,31.0,-100.00,SW,215,5.0,12.0,94,0.00,,,0.00,0.000000,,2013-02-19 15:32:00,
2013-02-19 10:42:00,33.0,31.0,-100.00,SW,215,5.0,12.0,94,0.00,,,0.00,0.000000,,2013-02-19 15:42:00,
2013-02-19 10:52:00,33.0,31.0,-100.00,SW,215,5.0,12.0,94,0.00,,,0.00,0.000000,,2013-02-19 15:52:00,
2013-02-19 12:01:00,36.0,34.0,-100.00,SW,221,4.0,11.0,92,-99.99,,,0.11,0.000000,,2013-02-19 17:01:00,
2013-02-19 12:21:00,36.0,34.0,-100.00,SW,221,4.0,11.0,92,-99.99,,,0.11,0.000000,,2013-02-19 17:21:00,
2013-02-19 12:32:00,36.0,34.0,-100.00,SW,221,4.0,11.0,92,-99.99,,,0.11,0.000000,,2013-02-19 17:32:00,
2013-02-19 12:42:00,36.0,34.0,-100.00,SW,221,4.0,11.0,92,-99.99,,,0.11,0.000000,,2013-02-19 17:42:00,
2013-02-19 12:52:00,36.0,34.0,-100.00,SW,221,4.0,11.0,92,-99.99,,,0.11,0.000000,,2013-02-19 17:52:00,
2013-02-19 13:01:00,38.0,36.0,-100.00,SW,216,5.0,10.0,92,0.04,,,0.15,0.000000,,2013-02-19 18:01:00,
2013-02-19 13:21:00,38.0,36.0,-100.00,SW,216,5.0,10.0,92,0.04,,,0.15,0.000000,,2013-02-19 18:21:00,
2013-02-19 13:32:00,38.0,36.0,-100.00,SW,216,5.0,10.0,92,0.04,,,0.15,0.000000,,2013-02-19 18:32:00,
2013-02-19 13:42:00,38.0,36.0,-100.00,SW,216,5.0,10.0,92,0.04,,,0.15,0.000000,,2013-02-19 18:42:00,
2013-02-19 13:52:00,38.0,36.0,-100.00,SW,216,5.0,10.0,92,0.04,,,0.15,0.000000,,2013-02-19 18:52:00,
2013-02-19 14:01:00,43.0,40.0,-100.00,SSW,209,3.0,10.0,89,0.00,,,0.15,0.000000,,2013-02-19 19:01:00,
2013-02-19 14:22:00,43.0,40.0,-100.00,SSW,209,3.0,10.0,89,0.00,,,0.15,0.000000,,2013-02-19 19:22:00,
2013-02-19 14:32:00,43.0,40.0,-100.00,SSW,209,3.0,10.0,89,0.00,,,0.15,0.000000,,2013-02-19 19:32:00,
2013-02-19 14:42:00,43.0,40.0,-100.00,SSW,209,3.0,10.0,89,0.00,,,0.15,0.000000,,2013-02-19 19:42:00,
2013-02-19 14:52:00,43.0,40.0,-100.00,SSW,209,3.0,10.0,89,0.00,,,0.15,0.000000,,2013-02-19 19:52:00,
2013-02-19 15:01:00,45.0,38.0,-100.00,SW,232,10.0,28.0,76,0.00,,,-99.99,0.000000,,2013-02-19 20:01:00,
2013-02-19 15:22:00,45.0,38.0,-100.00,SW,232,10.0,28.0,76,0.00,,,-99.99,0.000000,,2013-02-19 20:22:00,
2013-02-19 15:32:00,45.0,38.0,-100.00,SW,232,10.0,28.0,76,0.00,,,-99.99,0.000000,,2013-02-19 20:32:00,
2013-02-19 15:42:00,45.0,38.0,-100.00,SW,232,10.0,28.0,76,0.00,,,-99.99,0.000000,,2013-02-19 20:42:00,
2013-02-19 15:52:00,45.0,38.0,-100.00,SW,232,10.0,28.0,76,0.00,,,-99.99,0.000000,,2013-02-19 20:52:00,
2013-02-19 16:01:00,46.0,32.0,-100.00,WSW,248,8.0,20.0,57,0.00,,,0.15,0.000000,,2013-02-19 21:01:00,
2013-02-19 16:32:00,46.0,32.0,-100.00,WSW,248,8.0,20.0,57,0.00,,,0.15,0.000000,,2013-02-19 21:32:00,
2013-02-19 16:42:00,46.0,32.0,-100.00,WSW,248,8.0,20.0,57,0.00,,,0.15,0.000000,,2013-02-19 21:42:00,
2013-02-19 16:52:00,46.0,32.0,-100.00,WSW,248,8.0,20.0,57,0.00,,,0.15,0.000000,,2013-02-19 21:52:00,
2013-02-19 17:01:00,43.0,23.0,-100.00,West,260,6.0,21.0,45,0.00,,,0.15,0.000000,,2013-02-19 22:01:00,
2013-02-19 17:32:00,43.0,23.0,-100.00,West,260,6.0,21.0,45,0.00,,,0.15,0.000000,,2013-02-19 22:32:00,
2013-02-19 17:42:00,43.0,23.0,-100.00,West,260,6.0,21.0,45,0.00,,,0.15,0.000000,,2013-02-19 22:42:00,
2013-02-19 17:52:00,43.0,23.0,-100.00,West,260,6.0,21.0,45,0.00,,,0.15,0.000000,,2013-02-19 22:52:00,
2013-02-19 18:01:00,41.0,19.0,-100.00,WNW,283,4.0,21.0,40,0.00,,,0.15,0.000000,,2013-02-19 23:01:00,
2013-02-19 18:32:00,41.0,19.0,-100.00,WNW,283,4.0,21.0,40,0.00,,,0.15,0.000000,,2013-02-19 23:32:00,
2013-02-19 18:42:00,41.0,19.0,-100.00,WNW,283,4.0,21.0,40,0.00,,,0.15,0.000000,,2013-02-19 23:42:00,
2013-02-19 18:52:00,41.0,19.0,-100.00,WNW,283,4.0,21.0,40,0.00,,,0.15,0.000000,,2013-02-19 23:52:00,
2013-02-19 19:01:00,39.0,17.0,-100.00,WNW,296,7.0,17.0,41,0.00,,,0.15,0.000000,,2013-02-20 00:01:00,
2013-02-19 19:32:00,39.0,17.0,-100.00,WNW,296,7.0,17.0,41,0.00,,,0.15,0.000000,,2013-02-20 00:32:00,
2013-02-19 19:42:00,39.0,17.0,-100.00,WNW,296,7.0,17.0,41,0.00,,,0.15,0.000000,,2013-02-20 00:42:00,
2013-02-19 19:52:00,39.0,17.0,-100.00,WNW,296,7.0,17.0,41,0.00,,,0.15,0.000000,,2013-02-20 00:52:00,
2013-02-19 20:01:00,37.0,14.0,-100.00,WSW,250,7.0,18.0,39,0.00,,,0.15,0.000000,,2013-02-20 01:01:00,
2013-02-19 20:32:00,37.0,14.0,-100.00,WSW,250,7.0,18.0,39,0.00,,,0.15,0.000000,,2013-02-20 01:32:00,
2013-02-19 20:42:00,37.0,14.0,-100.00,WSW,250,7.0,18.0,39,0.00,,,0.15,0.000000,,2013-02-20 01:42:00,
2013-02-19 20:52:00,37.0,14.0,-100.00,WSW,250,7.0,18.0,39,0.00,,,0.15,0.000000,,2013-02-20 01:52:00,
2013-02-19 21:01:00,35.0,13.0,-100.00,WNW,285,7.0,17.0,40,0.00,,,0.15,0.000000,,2013-02-20 02:01:00,
2013-02-19 21:22:00,35.0,13.0,-100.00,WNW,285,7.0,17.0,40,0.00,,,0.15,0.000000,,2013-02-20 02:22:00,
2013-02-19 21:32:00,35.0,13.0,-100.00,WNW,285,7.0,17.0,40,0.00,,,0.15,0.000000,,2013-02-20 02:32:00,
2013-02-19 21:42:00,35.0,13.0,-100.00,WNW,285,7.0,17.0,40,0.00,,,0.15,0.000000,,2013-02-20 02:42:00,
2013-02-19 21:52:00,35.0,13.0,-100.00,WNW,285,7.0,17.0,40,0.00,,,0.15,0.000000,,2013-02-20 02:52:00,
2013-02-19 22:01:00,34.0,12.0,-100.00,WNW,292,5.0,19.0,39,0.00,,,0.15,0.000000,,2013-02-20 03:01:00,
2013-02-19 22:22:00,34.0,12.0,-100.00,WNW,292,5.0,19.0,39,0.00,,,0.15,0.000000,,2013-02-20 03:22:00,
2013-02-19 22:32:00,34.0,12.0,-100.00,WNW,292,5.0,19.0,39,0.00,,,0.15,0.000000,,2013-02-20 03:32:00,
2013-02-19 22:42:00,34.0,12.0,-100.00,WNW,292,5.0,19.0,39,0.00,,,0.15,0.000000,,2013-02-20 03:42:00,
2013-02-19 22:52:00,34.0,12.0,-100.00,WNW,292,5.0,19.0,39,0.00,,,0.15,0.000000,,2013-02-20 03:52:00,
2013-02-19 23:01:00,32.0,10.0,-100.00,WNW,292,5.0,19.0,40,0.00,,,0.15,0.000000,,2013-02-20 04:01:00,
2013-02-19 23:32:00,32.0,10.0,-100.00,WNW,292,5.0,19.0,40,0.00,,,0.15,0.000000,,2013-02-20 04:32:00,
2013-02-19 23:42:00,32.0,10.0,-100.00,WNW,292,5.0,19.0,40,0.00,,,0.15,0.000000,,2013-02-20 04:42:00,
2013-02-19 23:52:00,32.0,10.0,-100.00,WNW,292,5.0,19.0,40,0.00,,,0.15,0.000000,,2013-02-20 04:52:00,